createdAt,value
2023-02-27T00:01:35.058Z,99311.12
2023-02-27T00:06:36.771Z,99307.58
2023-02-27T00:11:38.646Z,99305.45
2023-02-27T00:16:43.955Z,99316.92
2023-02-27T00:21:45.720Z,99320.35
2023-02-27T00:26:47.342Z,99319.34
2023-02-27T00:31:50.740Z,99323.94
2023-02-27T00:36:52.954Z,99327.91
2023-02-27T00:41:54.675Z,99327.08
2023-02-27T00:46:56.345Z,99328.13
2023-02-27T00:51:58.043Z,99331.92
2023-02-27T00:56:59.735Z,99326.81
2023-02-27T01:02:01.454Z,99324.16
2023-02-27T01:07:03.654Z,99325.46
2023-02-27T01:12:05.848Z,99321.30
2023-02-27T01:17:07.482Z,99323.84
2023-02-27T01:22:09.159Z,99330.39
2023-02-27T01:27:10.909Z,99331.25
2023-02-27T01:32:12.676Z,99339.25
2023-02-27T01:37:14.411Z,99342.55
2023-02-27T01:42:27.354Z,99342.99
2023-02-27T01:47:28.976Z,99353.16
2023-02-27T01:52:32.548Z,99355.04
2023-02-27T01:57:36.005Z,99354.77
2023-02-27T02:02:40.819Z,99362.41
2023-02-27T02:07:43.795Z,99364.48
2023-02-27T02:12:47.019Z,99364.94
2023-02-27T02:18:16.308Z,99373.02
2023-02-27T02:23:46.153Z,99378.69
2023-02-27T02:29:12.060Z,99384.51
2023-02-27T02:34:53.195Z,99391.77
2023-02-27T02:40:27.289Z,99393.76
2023-02-27T02:45:53.404Z,99400.98
2023-02-27T02:51:12.090Z,99404.66
2023-02-27T02:56:24.345Z,99410.52
2023-02-27T03:01:49.239Z,99412.85
2023-02-27T03:06:58.456Z,99412.98
2023-02-27T03:12:05.396Z,99413.35
2023-02-27T03:17:15.869Z,99409.70
2023-02-27T03:22:23.577Z,99406.36
2023-02-27T03:27:30.273Z,99408.90
2023-02-27T03:32:45.934Z,99402.31
2023-02-27T03:38:06.631Z,99404.77
2023-02-27T03:43:26.273Z,99406.27
2023-02-27T03:48:30.201Z,99414.80
2023-02-27T03:53:41.587Z,99419.80
2023-02-27T03:58:43.681Z,99422.82
2023-02-27T04:03:52.759Z,99424.81
2023-02-27T04:09:21.644Z,99426.37
2023-02-27T04:14:52.257Z,99430.98
2023-02-27T04:20:26.222Z,99438.01
2023-02-27T04:26:17.973Z,99444.83
2023-02-27T04:31:35.137Z,99453.24
2023-02-27T04:36:57.105Z,99450.13
2023-02-27T04:42:06.662Z,99454.00
2023-02-27T04:47:11.459Z,99462.86
2023-02-27T04:52:18.286Z,99465.98
2023-02-27T04:57:28.150Z,99472.33
2023-02-27T05:02:36.792Z,99473.12
2023-02-27T05:07:47.950Z,99472.27
2023-02-27T05:13:14.216Z,99472.12
2023-02-27T05:18:19.124Z,99482.42
2023-02-27T05:23:32.770Z,99487.58
2023-02-27T05:28:46.101Z,99488.30
2023-02-27T05:33:56.747Z,99490.98
2023-02-27T05:39:04.218Z,99489.13
2023-02-27T05:44:18.168Z,99492.90
2023-02-27T05:49:41.784Z,99496.44
2023-02-27T05:54:58.604Z,99508.00
2023-02-27T06:00:05.183Z,99507.08
2023-02-27T06:05:15.396Z,99517.35
2023-02-27T06:10:19.576Z,99522.89
2023-02-27T06:15:21.277Z,99529.48
2023-02-27T06:20:23.295Z,99531.68
2023-02-27T06:25:25.080Z,99533.27
2023-02-27T06:30:27.202Z,99533.55
2023-02-27T06:35:29.619Z,99534.63
2023-02-27T06:40:31.289Z,99538.82
2023-02-27T06:45:32.949Z,99521.63
2023-02-27T06:50:35.275Z,99551.48
2023-02-27T06:55:37.197Z,99551.84
2023-02-27T07:00:38.905Z,99554.16
2023-02-27T07:05:41.967Z,99555.83
2023-02-27T07:10:46.949Z,99564.42
2023-02-27T07:15:50.467Z,99558.73
2023-02-27T07:20:52.276Z,99556.10
2023-02-27T07:25:53.948Z,99557.20
2023-02-27T07:30:56.304Z,99567.99
2023-02-27T07:35:58.202Z,99578.60
2023-02-27T07:40:59.967Z,99573.92
2023-02-27T07:46:04.089Z,99577.43
2023-02-27T07:51:06.622Z,99586.13
2023-02-27T07:56:08.810Z,99595.94
2023-02-27T08:01:10.465Z,99598.45
2023-02-27T08:06:12.239Z,99600.61
2023-02-27T08:11:13.862Z,99598.17
2023-02-27T08:16:15.586Z,99603.41
2023-02-27T08:21:17.310Z,99614.88
2023-02-27T08:26:18.998Z,99622.29
2023-02-27T08:31:20.728Z,99628.85
2023-02-27T08:36:22.490Z,99628.85
2023-02-27T08:41:24.137Z,99638.65
2023-02-27T08:46:26.442Z,99640.73
2023-02-27T08:51:29.039Z,99646.28
2023-02-27T08:56:33.811Z,99648.09
2023-02-27T09:01:35.568Z,99660.91
2023-02-27T09:06:37.677Z,99664.98
2023-02-27T09:11:39.732Z,99667.06
2023-02-27T09:16:41.503Z,99671.17
2023-02-27T09:21:43.215Z,99675.52
2023-02-27T09:26:46.449Z,99677.95
2023-02-27T09:31:48.513Z,99680.84
2023-02-27T09:36:50.625Z,99678.33
2023-02-27T09:42:04.128Z,99674.92
2023-02-27T09:47:10.986Z,99667.58
2023-02-27T09:52:14.606Z,99669.52
2023-02-27T09:57:40.622Z,99672.48
2023-02-27T10:03:06.146Z,99672.86
2023-02-27T10:08:19.630Z,99670.70
2023-02-27T10:13:27.299Z,99661.94
2023-02-27T10:18:33.389Z,99665.54
2023-02-27T10:24:15.465Z,99676.53
2023-02-27T10:29:36.574Z,99671.52
2023-02-27T10:34:41.304Z,99674.45
2023-02-27T10:39:47.820Z,99681.72
2023-02-27T10:44:54.492Z,99679.15
2023-02-27T10:49:56.396Z,99669.60
2023-02-27T10:55:18.484Z,99625.70
2023-02-27T11:00:53.596Z,99670.77
2023-02-27T11:06:04.586Z,99681.32
2023-02-27T11:11:11.834Z,99686.55
2023-02-27T11:16:20.878Z,99679.31
2023-02-27T11:21:22.948Z,99674.98
2023-02-27T11:26:34.797Z,99676.11
2023-02-27T11:31:38.216Z,99672.66
2023-02-27T11:36:41.772Z,99672.56
2023-02-27T11:41:44.996Z,99675.09
2023-02-27T11:46:48.870Z,99676.61
2023-02-27T11:52:42.530Z,99683.86
2023-02-27T11:57:47.191Z,99680.80
2023-02-27T12:03:26.667Z,99680.48
2023-02-27T12:08:50.519Z,99689.82
2023-02-27T12:14:19.621Z,99692.95
2023-02-27T12:19:38.355Z,99687.41
2023-02-27T12:25:07.206Z,99665.20
2023-02-27T12:30:21.473Z,99685.64
2023-02-27T12:35:33.103Z,99690.07
2023-02-27T12:40:46.852Z,99692.95
2023-02-27T12:46:00.537Z,99697.70
2023-02-27T12:51:27.806Z,99707.71
2023-02-27T12:56:42.584Z,99713.50
2023-02-27T13:01:59.789Z,99713.67
2023-02-27T13:07:20.148Z,99709.77
2023-02-27T13:12:54.231Z,99706.11
2023-02-27T13:18:09.259Z,99706.20
2023-02-27T13:23:18.090Z,99704.30
2023-02-27T13:28:25.429Z,99703.12
2023-02-27T13:33:54.566Z,99708.46
2023-02-27T13:38:57.532Z,99712.49
2023-02-27T13:44:20.215Z,99708.36
2023-02-27T13:49:29.736Z,99709.48
2023-02-27T13:54:36.370Z,99708.69
2023-02-27T13:59:40.783Z,99720.58
2023-02-27T14:04:51.608Z,99728.77
2023-02-27T14:10:20.270Z,99708.20
2023-02-27T14:15:21.953Z,99735.84
2023-02-27T14:20:27.464Z,99734.83
2023-02-27T14:25:44.338Z,99734.39
2023-02-27T14:30:55.594Z,99737.67
2023-02-27T14:36:04.899Z,99737.39
2023-02-27T14:41:28.086Z,99739.24
2023-02-27T14:46:38.982Z,99742.20
2023-02-27T14:51:40.709Z,99747.66
2023-02-27T14:57:06.454Z,99757.04
2023-02-27T15:02:35.684Z,99762.11
2023-02-27T15:07:39.871Z,99773.08
2023-02-27T15:12:41.731Z,99773.52
2023-02-27T15:17:48.226Z,99777.90
2023-02-27T15:22:50.033Z,99775.63
2023-02-27T15:27:51.807Z,99782.29
2023-02-27T15:32:55.798Z,99780.65
2023-02-27T15:37:59.493Z,99784.05
2023-02-27T15:43:01.674Z,99792.02
2023-02-27T15:48:04.030Z,99795.41
2023-02-27T15:53:08.380Z,99796.63
2023-02-27T15:58:31.056Z,99806.58
2023-02-27T16:03:37.987Z,99813.94
2023-02-27T16:08:46.369Z,99821.08
2023-02-27T16:13:48.720Z,99824.46
2023-02-27T16:18:59.328Z,99825.60
2023-02-27T16:24:21.780Z,99829.81
2023-02-27T16:29:35.768Z,99834.08
2023-02-27T16:34:45.370Z,99840.45
2023-02-27T16:39:51.008Z,99847.46
2023-02-27T16:44:52.721Z,99850.73
2023-02-27T16:49:54.360Z,99851.41
2023-02-27T16:54:56.325Z,99859.86
2023-02-27T16:59:58.779Z,99865.48
2023-02-27T17:05:00.828Z,99868.39
2023-02-27T17:10:03.211Z,99874.00
2023-02-27T17:15:05.285Z,99879.27
2023-02-27T17:20:07.775Z,99882.57
2023-02-27T17:25:10.076Z,99886.48
2023-02-27T17:30:13.710Z,99890.55
2023-02-27T17:35:15.453Z,99894.97
2023-02-27T17:40:17.783Z,99900.49
2023-02-27T17:45:21.082Z,99901.33
2023-02-27T17:50:22.714Z,99906.39
2023-02-27T17:55:24.644Z,99911.09
2023-02-27T18:00:26.440Z,99916.16
2023-02-27T18:05:29.541Z,99920.96
2023-02-27T18:10:31.170Z,99928.45
2023-02-27T18:15:33.528Z,99931.91
2023-02-27T18:20:35.221Z,99940.95
2023-02-27T18:25:37.724Z,99948.91
2023-02-27T18:30:39.469Z,99950.35
2023-02-27T18:35:41.519Z,99955.46
2023-02-27T18:40:43.278Z,99956.95
2023-02-27T18:45:45.565Z,99961.19
2023-02-27T18:50:48.223Z,99964.46
2023-02-27T18:55:50.040Z,99968.60
2023-02-27T19:00:51.996Z,99969.78
2023-02-27T19:05:54.716Z,99975.98
2023-02-27T19:10:57.408Z,99977.83
2023-02-27T19:16:04.648Z,99980.30
2023-02-27T19:21:06.675Z,99984.71
2023-02-27T19:26:12.031Z,99988.55
2023-02-27T19:31:16.399Z,99992.66
2023-02-27T19:36:21.051Z,99994.95
2023-02-27T19:41:23.939Z,99998.27
2023-02-27T19:46:33.723Z,100000.41
2023-02-27T19:51:35.550Z,100004.05
2023-02-27T19:56:37.239Z,100015.19
2023-02-27T20:01:39.782Z,100011.75
2023-02-27T20:06:44.301Z,100014.84
2023-02-27T20:11:48.166Z,100027.30
2023-02-27T20:16:52.882Z,100030.95
2023-02-27T20:21:56.372Z,100033.77
2023-02-27T20:26:59.374Z,100039.38
2023-02-27T20:32:01.489Z,100043.60
2023-02-27T20:37:03.381Z,100042.67
2023-02-27T20:42:05.790Z,100043.42
2023-02-27T20:47:08.976Z,100041.27
2023-02-27T20:52:10.689Z,100045.84
2023-02-27T20:57:12.300Z,100052.42
2023-02-27T21:02:14.463Z,100055.41
2023-02-27T21:07:18.704Z,100055.64
2023-02-27T21:12:20.383Z,100055.77
2023-02-27T21:17:23.588Z,100050.11
2023-02-27T21:22:25.220Z,100046.12
2023-02-27T21:27:27.062Z,100047.86
2023-02-27T21:32:28.788Z,100047.13
2023-02-27T21:37:30.478Z,100049.48
2023-02-27T21:42:32.118Z,100053.93
2023-02-27T21:47:33.830Z,100053.56
2023-02-27T21:52:35.582Z,100051.56
2023-02-27T21:57:39.562Z,100052.41
2023-02-27T22:02:42.772Z,100053.88
2023-02-27T22:07:44.548Z,100057.39
2023-02-27T22:12:47.025Z,100059.90
2023-02-27T22:17:54.698Z,100056.88
2023-02-27T22:22:57.168Z,100050.88
2023-02-27T22:27:59.809Z,100052.61
2023-02-27T22:33:01.556Z,100050.12
2023-02-27T22:38:03.240Z,100057.88
2023-02-27T22:43:06.174Z,100055.23
2023-02-27T22:48:08.584Z,100058.92
2023-02-27T22:53:12.202Z,100059.30
2023-02-27T22:58:13.816Z,100057.64
2023-02-27T23:03:17.494Z,100064.68
2023-02-27T23:08:19.108Z,100056.45
2023-02-27T23:13:21.042Z,100059.16
2023-02-27T23:18:22.802Z,100060.38
2023-02-27T23:23:24.691Z,100066.87
2023-02-27T23:28:26.710Z,100069.61
2023-02-27T23:33:29.624Z,100068.17
2023-02-27T23:38:31.345Z,100070.21
2023-02-27T23:43:33.773Z,100068.57
2023-02-27T23:48:35.862Z,100067.08
2023-02-27T23:53:40.328Z,100068.02
2023-02-27T23:58:42.444Z,100068.98
